Cloverdale, Tennessee
Current Conditions -  °F | °C
As of 4:50 PM on Saturday 25 Oct 2014 (Local Time) from KNQA Reporting Station
Clear Clear  
Wind Chill: 82°   Ceiling: Unl
Heat Index: 85°   Visibility: 10mi
Dew Point: 66°   Wind: 7mph
Humidity: 58%   Direction: 240°WSW
Pressure: 30.01"   Gusts: NA
Location:  35.3343°N, 89.9316°W
Report Text: KNQA 252150Z 24006KT 10SM SKC 28/19 A3001
Loading
Personal Weather Stations






























Interactive Weather Map
Tropical Storm Tracking
New forecast layout! Learn more

10-Day Weather Forecast

Advertisements
Track Severe Weather on mobile